sensor_id;sensor_type;location;lat;lon;timestamp;P1;durP1;ratioP1;P2;durP2;ratioP2
30080;SDS011;16902;50.816;12.828;2023-02-28T00:02:07;12.23;;;8.70;;
30080;SDS011;16902;50.816;12.828;2023-02-28T00:07:09;11.70;;;8.13;;
30080;SDS011;16902;50.816;12.828;2023-02-28T00:12:11;11.13;;;8.63;;
30080;SDS011;16902;50.816;12.828;2023-02-28T00:17:13;9.03;;;7.97;;
30080;SDS011;16902;50.816;12.828;2023-02-28T00:22:15;11.00;;;7.73;;
30080;SDS011;16902;50.816;12.828;2023-02-28T00:27:19;11.93;;;8.07;;
30080;SDS011;16902;50.816;12.828;2023-02-28T00:32:21;10.23;;;7.60;;
30080;SDS011;16902;50.816;12.828;2023-02-28T00:37:23;13.03;;;8.63;;
30080;SDS011;16902;50.816;12.828;2023-02-28T00:42:25;8.47;;;7.27;;
30080;SDS011;16902;50.816;12.828;2023-02-28T00:47:27;11.00;;;7.97;;
30080;SDS011;16902;50.816;12.828;2023-02-28T00:52:29;15.17;;;8.43;;
30080;SDS011;16902;50.816;12.828;2023-02-28T00:57:31;9.60;;;7.40;;
30080;SDS011;16902;50.816;12.828;2023-02-28T01:02:33;10.33;;;7.60;;
30080;SDS011;16902;50.816;12.828;2023-02-28T01:07:35;9.93;;;7.60;;
30080;SDS011;16902;50.816;12.828;2023-02-28T01:12:36;11.17;;;8.43;;
30080;SDS011;16902;50.816;12.828;2023-02-28T01:17:38;10.63;;;7.97;;
30080;SDS011;16902;50.816;12.828;2023-02-28T01:22:40;12.77;;;8.13;;
30080;SDS011;16902;50.816;12.828;2023-02-28T01:27:42;13.37;;;8.00;;
30080;SDS011;16902;50.816;12.828;2023-02-28T01:32:44;10.47;;;8.20;;
30080;SDS011;16902;50.816;12.828;2023-02-28T01:37:46;11.53;;;7.53;;
30080;SDS011;16902;50.816;12.828;2023-02-28T01:42:47;10.03;;;7.73;;
30080;SDS011;16902;50.816;12.828;2023-02-28T01:47:50;10.77;;;7.27;;
30080;SDS011;16902;50.816;12.828;2023-02-28T01:52:54;11.10;;;7.70;;
30080;SDS011;16902;50.816;12.828;2023-02-28T01:58:02;10.23;;;7.57;;
30080;SDS011;16902;50.816;12.828;2023-02-28T02:03:08;13.53;;;9.00;;
30080;SDS011;16902;50.816;12.828;2023-02-28T02:08:21;13.13;;;7.87;;
30080;SDS011;16902;50.816;12.828;2023-02-28T02:24:46;10.03;;;8.13;;
30080;SDS011;16902;50.816;12.828;2023-02-28T02:35:06;9.97;;;8.23;;
30080;SDS011;16902;50.816;12.828;2023-02-28T02:40:17;9.50;;;7.10;;
30080;SDS011;16902;50.816;12.828;2023-02-28T02:45:26;12.63;;;8.30;;
30080;SDS011;16902;50.816;12.828;2023-02-28T02:50:44;9.90;;;7.20;;
30080;SDS011;16902;50.816;12.828;2023-02-28T02:55:50;12.17;;;7.87;;
30080;SDS011;16902;50.816;12.828;2023-02-28T03:00:59;10.83;;;8.03;;
30080;SDS011;16902;50.816;12.828;2023-02-28T03:06:05;11.90;;;8.40;;
30080;SDS011;16902;50.816;12.828;2023-02-28T03:11:11;11.03;;;8.47;;
30080;SDS011;16902;50.816;12.828;2023-02-28T03:27:23;12.00;;;7.83;;
30080;SDS011;16902;50.816;12.828;2023-02-28T03:32:47;15.23;;;9.43;;
30080;SDS011;16902;50.816;12.828;2023-02-28T03:38:07;12.80;;;8.87;;
30080;SDS011;16902;50.816;12.828;2023-02-28T03:43:18;10.80;;;8.57;;
30080;SDS011;16902;50.816;12.828;2023-02-28T03:48:27;12.53;;;8.20;;
30080;SDS011;16902;50.816;12.828;2023-02-28T03:53:53;12.23;;;8.10;;
30080;SDS011;16902;50.816;12.828;2023-02-28T03:59:01;13.57;;;8.37;;
30080;SDS011;16902;50.816;12.828;2023-02-28T04:04:39;9.60;;;7.43;;
30080;SDS011;16902;50.816;12.828;2023-02-28T04:09:46;9.30;;;7.63;;
30080;SDS011;16902;50.816;12.828;2023-02-28T04:14:48;11.67;;;7.70;;
30080;SDS011;16902;50.816;12.828;2023-02-28T04:19:50;13.33;;;8.83;;
30080;SDS011;16902;50.816;12.828;2023-02-28T04:24:52;16.17;;;10.33;;
30080;SDS011;16902;50.816;12.828;2023-02-28T04:29:57;14.70;;;10.53;;
30080;SDS011;16902;50.816;12.828;2023-02-28T04:34:59;14.93;;;9.87;;
30080;SDS011;16902;50.816;12.828;2023-02-28T04:40:01;15.00;;;10.20;;
30080;SDS011;16902;50.816;12.828;2023-02-28T04:45:04;16.57;;;10.57;;
30080;SDS011;16902;50.816;12.828;2023-02-28T04:50:06;18.57;;;12.03;;
30080;SDS011;16902;50.816;12.828;2023-02-28T04:55:09;15.60;;;11.63;;
30080;SDS011;16902;50.816;12.828;2023-02-28T05:00:11;20.37;;;12.40;;
30080;SDS011;16902;50.816;12.828;2023-02-28T05:05:16;18.40;;;12.90;;
30080;SDS011;16902;50.816;12.828;2023-02-28T05:10:19;21.53;;;12.47;;
30080;SDS011;16902;50.816;12.828;2023-02-28T05:15:21;17.80;;;13.03;;
30080;SDS011;16902;50.816;12.828;2023-02-28T05:20:23;21.70;;;13.37;;
30080;SDS011;16902;50.816;12.828;2023-02-28T05:25:25;23.37;;;14.73;;
30080;SDS011;16902;50.816;12.828;2023-02-28T05:30:27;22.13;;;14.07;;
30080;SDS011;16902;50.816;12.828;2023-02-28T05:35:28;18.57;;;13.83;;
30080;SDS011;16902;50.816;12.828;2023-02-28T05:40:30;23.13;;;14.50;;
30080;SDS011;16902;50.816;12.828;2023-02-28T05:45:32;19.47;;;13.67;;
30080;SDS011;16902;50.816;12.828;2023-02-28T05:50:34;23.33;;;14.97;;
30080;SDS011;16902;50.816;12.828;2023-02-28T05:55:36;20.83;;;15.30;;
30080;SDS011;16902;50.816;12.828;2023-02-28T06:00:38;21.13;;;15.00;;
30080;SDS011;16902;50.816;12.828;2023-02-28T06:05:42;20.43;;;14.63;;
30080;SDS011;16902;50.816;12.828;2023-02-28T06:10:44;21.00;;;14.33;;
30080;SDS011;16902;50.816;12.828;2023-02-28T06:15:46;21.47;;;14.73;;
30080;SDS011;16902;50.816;12.828;2023-02-28T06:20:54;22.97;;;15.30;;
30080;SDS011;16902;50.816;12.828;2023-02-28T06:25:56;24.83;;;15.90;;
30080;SDS011;16902;50.816;12.828;2023-02-28T06:30:59;25.50;;;16.80;;
30080;SDS011;16902;50.816;12.828;2023-02-28T06:36:06;28.60;;;17.80;;
30080;SDS011;16902;50.816;12.828;2023-02-28T06:41:09;31.20;;;18.30;;
30080;SDS011;16902;50.816;12.828;2023-02-28T06:46:12;33.47;;;19.87;;
30080;SDS011;16902;50.816;12.828;2023-02-28T06:51:16;29.83;;;18.97;;
30080;SDS011;16902;50.816;12.828;2023-02-28T06:56:23;28.33;;;17.43;;
30080;SDS011;16902;50.816;12.828;2023-02-28T07:01:25;31.50;;;18.80;;
30080;SDS011;16902;50.816;12.828;2023-02-28T07:06:29;29.43;;;18.37;;
30080;SDS011;16902;50.816;12.828;2023-02-28T07:11:31;32.67;;;18.63;;
30080;SDS011;16902;50.816;12.828;2023-02-28T07:16:33;32.67;;;16.80;;
30080;SDS011;16902;50.816;12.828;2023-02-28T07:21:36;29.83;;;16.60;;
30080;SDS011;16902;50.816;12.828;2023-02-28T07:26:38;26.33;;;17.17;;
30080;SDS011;16902;50.816;12.828;2023-02-28T07:31:40;25.23;;;16.17;;
30080;SDS011;16902;50.816;12.828;2023-02-28T07:36:42;23.60;;;15.10;;
30080;SDS011;16902;50.816;12.828;2023-02-28T07:41:44;24.47;;;15.33;;
30080;SDS011;16902;50.816;12.828;2023-02-28T07:46:45;25.23;;;15.87;;
30080;SDS011;16902;50.816;12.828;2023-02-28T07:51:47;23.17;;;15.73;;
30080;SDS011;16902;50.816;12.828;2023-02-28T07:56:51;23.97;;;14.73;;
30080;SDS011;16902;50.816;12.828;2023-02-28T08:01:52;26.63;;;15.57;;
30080;SDS011;16902;50.816;12.828;2023-02-28T08:06:54;25.60;;;14.33;;
30080;SDS011;16902;50.816;12.828;2023-02-28T08:11:57;19.80;;;13.60;;
30080;SDS011;16902;50.816;12.828;2023-02-28T08:16:59;19.00;;;12.77;;
30080;SDS011;16902;50.816;12.828;2023-02-28T08:22:01;17.87;;;12.80;;
30080;SDS011;16902;50.816;12.828;2023-02-28T08:27:03;18.20;;;13.10;;
30080;SDS011;16902;50.816;12.828;2023-02-28T08:32:06;16.00;;;13.23;;
30080;SDS011;16902;50.816;12.828;2023-02-28T08:37:24;15.23;;;11.27;;
30080;SDS011;16902;50.816;12.828;2023-02-28T08:42:26;15.23;;;11.57;;
30080;SDS011;16902;50.816;12.828;2023-02-28T08:47:28;17.00;;;11.70;;
30080;SDS011;16902;50.816;12.828;2023-02-28T08:52:29;15.60;;;12.20;;
30080;SDS011;16902;50.816;12.828;2023-02-28T08:57:32;15.07;;;11.87;;
30080;SDS011;16902;50.816;12.828;2023-02-28T09:02:34;15.57;;;12.90;;
30080;SDS011;16902;50.816;12.828;2023-02-28T09:07:36;15.20;;;12.43;;
30080;SDS011;16902;50.816;12.828;2023-02-28T09:12:38;12.63;;;11.33;;
30080;SDS011;16902;50.816;12.828;2023-02-28T09:17:39;15.43;;;12.93;;
30080;SDS011;16902;50.816;12.828;2023-02-28T09:22:42;14.37;;;12.67;;
30080;SDS011;16902;50.816;12.828;2023-02-28T09:27:44;17.13;;;13.00;;
30080;SDS011;16902;50.816;12.828;2023-02-28T09:32:46;14.67;;;13.07;;
30080;SDS011;16902;50.816;12.828;2023-02-28T09:37:53;18.03;;;13.10;;
30080;SDS011;16902;50.816;12.828;2023-02-28T09:42:55;15.93;;;13.97;;
30080;SDS011;16902;50.816;12.828;2023-02-28T09:48:12;17.20;;;15.50;;
30080;SDS011;16902;50.816;12.828;2023-02-28T09:53:21;15.87;;;14.43;;
30080;SDS011;16902;50.816;12.828;2023-02-28T09:58:57;15.37;;;13.97;;
30080;SDS011;16902;50.816;12.828;2023-02-28T10:09:38;15.50;;;13.90;;
30080;SDS011;16902;50.816;12.828;2023-02-28T10:14:40;17.20;;;15.43;;
30080;SDS011;16902;50.816;12.828;2023-02-28T10:19:52;17.50;;;15.80;;
30080;SDS011;16902;50.816;12.828;2023-02-28T10:25:05;18.17;;;16.43;;
30080;SDS011;16902;50.816;12.828;2023-02-28T10:30:27;18.00;;;15.77;;
30080;SDS011;16902;50.816;12.828;2023-02-28T10:35:29;17.48;;;15.98;;
30080;SDS011;16902;50.816;12.828;2023-02-28T10:40:35;18.35;;;16.73;;
30080;SDS011;16902;50.816;12.828;2023-02-28T10:45:37;19.60;;;17.60;;
30080;SDS011;16902;50.816;12.828;2023-02-28T10:55:51;20.67;;;18.77;;
30080;SDS011;16902;50.816;12.828;2023-02-28T11:01:39;19.73;;;17.92;;
30080;SDS011;16902;50.816;12.828;2023-02-28T11:06:40;19.52;;;17.50;;
30080;SDS011;16902;50.816;12.828;2023-02-28T11:11:43;19.70;;;17.73;;
30080;SDS011;16902;50.816;12.828;2023-02-28T11:16:46;20.92;;;19.13;;
30080;SDS011;16902;50.816;12.828;2023-02-28T11:21:54;21.52;;;19.70;;
30080;SDS011;16902;50.816;12.828;2023-02-28T11:26:58;23.50;;;21.50;;
30080;SDS011;16902;50.816;12.828;2023-02-28T11:37:04;23.52;;;21.50;;
30080;SDS011;16902;50.816;12.828;2023-02-28T11:58:00;24.33;;;22.35;;
30080;SDS011;16902;50.816;12.828;2023-02-28T12:03:26;22.73;;;21.02;;
30080;SDS011;16902;50.816;12.828;2023-02-28T12:35:34;23.75;;;21.92;;
30080;SDS011;16902;50.816;12.828;2023-02-28T12:40:42;23.63;;;21.77;;
30080;SDS011;16902;50.816;12.828;2023-02-28T12:45:50;22.98;;;21.17;;
30080;SDS011;16902;50.816;12.828;2023-02-28T12:50:57;23.13;;;21.35;;
30080;SDS011;16902;50.816;12.828;2023-02-28T12:56:12;23.00;;;21.00;;
30080;SDS011;16902;50.816;12.828;2023-02-28T13:12:25;23.52;;;21.20;;
30080;SDS011;16902;50.816;12.828;2023-02-28T13:17:28;24.38;;;22.00;;
30080;SDS011;16902;50.816;12.828;2023-02-28T13:27:41;23.83;;;22.10;;
30080;SDS011;16902;50.816;12.828;2023-02-28T13:32:43;24.50;;;22.75;;
30080;SDS011;16902;50.816;12.828;2023-02-28T13:37:46;24.42;;;22.42;;
30080;SDS011;16902;50.816;12.828;2023-02-28T13:42:51;25.10;;;23.15;;
30080;SDS011;16902;50.816;12.828;2023-02-28T13:48:02;26.55;;;24.48;;
30080;SDS011;16902;50.816;12.828;2023-02-28T13:58:26;27.90;;;25.70;;
30080;SDS011;16902;50.816;12.828;2023-02-28T14:19:38;26.88;;;24.58;;
30080;SDS011;16902;50.816;12.828;2023-02-28T14:40:51;24.77;;;22.33;;
30080;SDS011;16902;50.816;12.828;2023-02-28T14:46:00;25.65;;;23.08;;
30080;SDS011;16902;50.816;12.828;2023-02-28T14:51:04;27.85;;;24.13;;
30080;SDS011;16902;50.816;12.828;2023-02-28T14:56:06;25.73;;;23.13;;
30080;SDS011;16902;50.816;12.828;2023-02-28T15:01:20;24.92;;;22.25;;
30080;SDS011;16902;50.816;12.828;2023-02-28T15:06:23;24.70;;;22.20;;
30080;SDS011;16902;50.816;12.828;2023-02-28T15:11:28;22.70;;;20.67;;
30080;SDS011;16902;50.816;12.828;2023-02-28T15:16:35;25.38;;;22.17;;
30080;SDS011;16902;50.816;12.828;2023-02-28T15:21:41;24.20;;;21.70;;
30080;SDS011;16902;50.816;12.828;2023-02-28T15:26:50;24.20;;;21.67;;
30080;SDS011;16902;50.816;12.828;2023-02-28T15:31:57;22.33;;;20.10;;
30080;SDS011;16902;50.816;12.828;2023-02-28T15:37:06;21.65;;;19.30;;
30080;SDS011;16902;50.816;12.828;2023-02-28T15:42:29;22.23;;;19.83;;
30080;SDS011;16902;50.816;12.828;2023-02-28T15:47:32;21.77;;;19.47;;
30080;SDS011;16902;50.816;12.828;2023-02-28T15:52:38;23.63;;;20.67;;
30080;SDS011;16902;50.816;12.828;2023-02-28T15:57:42;24.10;;;20.40;;
30080;SDS011;16902;50.816;12.828;2023-02-28T16:02:47;45.83;;;29.93;;
30080;SDS011;16902;50.816;12.828;2023-02-28T16:07:49;33.97;;;25.00;;
30080;SDS011;16902;50.816;12.828;2023-02-28T16:12:52;37.43;;;27.17;;
30080;SDS011;16902;50.816;12.828;2023-02-28T16:17:55;41.20;;;28.00;;
30080;SDS011;16902;50.816;12.828;2023-02-28T16:22:57;26.80;;;21.40;;
30080;SDS011;16902;50.816;12.828;2023-02-28T16:28:03;28.93;;;23.07;;
30080;SDS011;16902;50.816;12.828;2023-02-28T16:33:09;32.70;;;24.77;;
30080;SDS011;16902;50.816;12.828;2023-02-28T16:38:11;28.87;;;21.10;;
30080;SDS011;16902;50.816;12.828;2023-02-28T16:43:15;24.83;;;19.87;;
30080;SDS011;16902;50.816;12.828;2023-02-28T16:48:20;39.00;;;26.67;;
30080;SDS011;16902;50.816;12.828;2023-02-28T16:53:22;26.90;;;20.30;;
30080;SDS011;16902;50.816;12.828;2023-02-28T16:58:23;29.63;;;20.83;;
30080;SDS011;16902;50.816;12.828;2023-02-28T17:03:27;30.20;;;21.83;;
30080;SDS011;16902;50.816;12.828;2023-02-28T17:08:34;33.87;;;20.90;;
30080;SDS011;16902;50.816;12.828;2023-02-28T17:13:36;28.20;;;20.27;;
30080;SDS011;16902;50.816;12.828;2023-02-28T17:18:37;33.77;;;22.37;;
30080;SDS011;16902;50.816;12.828;2023-02-28T17:23:40;29.87;;;21.63;;
30080;SDS011;16902;50.816;12.828;2023-02-28T17:28:41;30.73;;;21.30;;
30080;SDS011;16902;50.816;12.828;2023-02-28T17:33:43;35.00;;;20.03;;
30080;SDS011;16902;50.816;12.828;2023-02-28T17:38:45;27.63;;;19.63;;
30080;SDS011;16902;50.816;12.828;2023-02-28T17:43:47;31.47;;;19.63;;
30080;SDS011;16902;50.816;12.828;2023-02-28T17:48:52;34.00;;;22.10;;
30080;SDS011;16902;50.816;12.828;2023-02-28T17:53:54;37.80;;;28.00;;
30080;SDS011;16902;50.816;12.828;2023-02-28T17:58:56;32.60;;;25.27;;
30080;SDS011;16902;50.816;12.828;2023-02-28T18:03:58;32.73;;;23.37;;
30080;SDS011;16902;50.816;12.828;2023-02-28T18:09:00;31.80;;;22.27;;
30080;SDS011;16902;50.816;12.828;2023-02-28T18:14:02;32.10;;;20.83;;
30080;SDS011;16902;50.816;12.828;2023-02-28T18:19:04;28.67;;;20.50;;
30080;SDS011;16902;50.816;12.828;2023-02-28T18:24:07;35.20;;;21.33;;
30080;SDS011;16902;50.816;12.828;2023-02-28T18:29:15;31.47;;;20.33;;
30080;SDS011;16902;50.816;12.828;2023-02-28T18:34:26;31.73;;;20.63;;
30080;SDS011;16902;50.816;12.828;2023-02-28T18:39:29;30.03;;;19.63;;
30080;SDS011;16902;50.816;12.828;2023-02-28T18:44:31;28.30;;;18.50;;
30080;SDS011;16902;50.816;12.828;2023-02-28T18:49:33;33.87;;;20.73;;
30080;SDS011;16902;50.816;12.828;2023-02-28T18:54:36;28.27;;;18.40;;
30080;SDS011;16902;50.816;12.828;2023-02-28T18:59:37;23.03;;;17.93;;
30080;SDS011;16902;50.816;12.828;2023-02-28T19:04:40;32.73;;;19.70;;
30080;SDS011;16902;50.816;12.828;2023-02-28T19:09:42;30.17;;;18.97;;
30080;SDS011;16902;50.816;12.828;2023-02-28T19:14:44;27.83;;;18.53;;
30080;SDS011;16902;50.816;12.828;2023-02-28T19:19:47;30.00;;;19.47;;
30080;SDS011;16902;50.816;12.828;2023-02-28T19:24:49;30.67;;;19.93;;
30080;SDS011;16902;50.816;12.828;2023-02-28T19:29:51;29.63;;;19.93;;
30080;SDS011;16902;50.816;12.828;2023-02-28T19:34:53;33.43;;;21.13;;
30080;SDS011;16902;50.816;12.828;2023-02-28T19:39:55;34.47;;;19.93;;
30080;SDS011;16902;50.816;12.828;2023-02-28T19:44:57;36.83;;;21.30;;
30080;SDS011;16902;50.816;12.828;2023-02-28T19:50:00;33.10;;;21.93;;
30080;SDS011;16902;50.816;12.828;2023-02-28T19:55:02;31.33;;;20.20;;
30080;SDS011;16902;50.816;12.828;2023-02-28T20:00:04;36.20;;;22.47;;
30080;SDS011;16902;50.816;12.828;2023-02-28T20:05:12;40.13;;;23.37;;
30080;SDS011;16902;50.816;12.828;2023-02-28T20:10:14;51.50;;;28.00;;
30080;SDS011;16902;50.816;12.828;2023-02-28T20:15:16;50.73;;;27.40;;
30080;SDS011;16902;50.816;12.828;2023-02-28T20:20:18;47.60;;;28.37;;
30080;SDS011;16902;50.816;12.828;2023-02-28T20:25:20;44.00;;;25.10;;
30080;SDS011;16902;50.816;12.828;2023-02-28T20:30:22;36.63;;;22.87;;
30080;SDS011;16902;50.816;12.828;2023-02-28T20:35:24;38.20;;;22.43;;
30080;SDS011;16902;50.816;12.828;2023-02-28T20:40:26;36.63;;;22.90;;
30080;SDS011;16902;50.816;12.828;2023-02-28T20:45:28;40.87;;;24.13;;
30080;SDS011;16902;50.816;12.828;2023-02-28T20:50:30;40.60;;;23.53;;
30080;SDS011;16902;50.816;12.828;2023-02-28T20:55:32;36.37;;;23.33;;
30080;SDS011;16902;50.816;12.828;2023-02-28T21:00:35;38.07;;;22.60;;
30080;SDS011;16902;50.816;12.828;2023-02-28T21:05:38;38.73;;;21.20;;
30080;SDS011;16902;50.816;12.828;2023-02-28T21:10:40;36.33;;;20.13;;
30080;SDS011;16902;50.816;12.828;2023-02-28T21:15:41;33.33;;;20.00;;
30080;SDS011;16902;50.816;12.828;2023-02-28T21:20:43;32.63;;;18.40;;
30080;SDS011;16902;50.816;12.828;2023-02-28T21:25:45;30.30;;;18.60;;
30080;SDS011;16902;50.816;12.828;2023-02-28T21:30:47;26.87;;;17.27;;
30080;SDS011;16902;50.816;12.828;2023-02-28T21:35:49;35.07;;;23.77;;
30080;SDS011;16902;50.816;12.828;2023-02-28T21:40:52;35.33;;;20.20;;
30080;SDS011;16902;50.816;12.828;2023-02-28T21:45:54;33.60;;;18.73;;
30080;SDS011;16902;50.816;12.828;2023-02-28T21:51:00;32.17;;;19.40;;
30080;SDS011;16902;50.816;12.828;2023-02-28T21:56:03;35.97;;;19.47;;
30080;SDS011;16902;50.816;12.828;2023-02-28T22:01:08;33.93;;;19.13;;
30080;SDS011;16902;50.816;12.828;2023-02-28T22:06:16;35.33;;;20.23;;
30080;SDS011;16902;50.816;12.828;2023-02-28T22:11:20;32.43;;;19.87;;
30080;SDS011;16902;50.816;12.828;2023-02-28T22:16:24;40.93;;;20.87;;
30080;SDS011;16902;50.816;12.828;2023-02-28T22:21:31;36.90;;;19.80;;
30080;SDS011;16902;50.816;12.828;2023-02-28T22:26:34;34.43;;;20.27;;
30080;SDS011;16902;50.816;12.828;2023-02-28T22:31:37;36.30;;;21.13;;
30080;SDS011;16902;50.816;12.828;2023-02-28T22:36:40;36.67;;;19.40;;
30080;SDS011;16902;50.816;12.828;2023-02-28T22:41:43;35.03;;;20.50;;
30080;SDS011;16902;50.816;12.828;2023-02-28T22:46:45;41.40;;;22.17;;
30080;SDS011;16902;50.816;12.828;2023-02-28T22:51:47;46.77;;;24.43;;
30080;SDS011;16902;50.816;12.828;2023-02-28T22:56:48;38.47;;;22.57;;
30080;SDS011;16902;50.816;12.828;2023-02-28T23:01:50;40.17;;;21.77;;
30080;SDS011;16902;50.816;12.828;2023-02-28T23:06:52;35.57;;;22.03;;
30080;SDS011;16902;50.816;12.828;2023-02-28T23:11:54;33.73;;;18.90;;
30080;SDS011;16902;50.816;12.828;2023-02-28T23:16:56;30.30;;;19.63;;
30080;SDS011;16902;50.816;12.828;2023-02-28T23:21:58;33.10;;;19.47;;
30080;SDS011;16902;50.816;12.828;2023-02-28T23:27:02;34.53;;;19.33;;
30080;SDS011;16902;50.816;12.828;2023-02-28T23:32:05;37.47;;;20.60;;
30080;SDS011;16902;50.816;12.828;2023-02-28T23:37:07;34.43;;;19.37;;
30080;SDS011;16902;50.816;12.828;2023-02-28T23:42:10;32.73;;;18.07;;
30080;SDS011;16902;50.816;12.828;2023-02-28T23:47:11;37.03;;;18.20;;
30080;SDS011;16902;50.816;12.828;2023-02-28T23:52:14;32.07;;;17.83;;
30080;SDS011;16902;50.816;12.828;2023-02-28T23:57:16;38.07;;;20.20;;
